createdAt,value
2022-10-31T00:00:34.004Z,75881.09
2022-10-31T00:03:01.829Z,75887.25
2022-10-31T00:05:29.182Z,75885.19
2022-10-31T00:07:59.172Z,75874.91
2022-10-31T00:10:26.988Z,75881.09
2022-10-31T00:12:54.095Z,75874.91
2022-10-31T00:15:28.330Z,75872.84
2022-10-31T00:17:56.310Z,75876.97
2022-10-31T00:20:23.549Z,75876.97
2022-10-31T00:22:53.753Z,75897.53
2022-10-31T00:25:23.671Z,75881.09
2022-10-31T00:27:52.844Z,75879.03
2022-10-31T00:30:21.623Z,75864.63
2022-10-31T00:32:49.034Z,75876.97
2022-10-31T00:35:21.153Z,75872.84
2022-10-31T00:37:51.261Z,75868.75
2022-10-31T00:40:22.280Z,75870.81
2022-10-31T00:42:49.403Z,75864.63
2022-10-31T00:45:16.899Z,75876.97
2022-10-31T00:47:43.955Z,75889.31
2022-10-31T00:50:15.283Z,75889.31
2022-10-31T00:52:43.626Z,75897.53
2022-10-31T00:55:10.749Z,75897.53
2022-10-31T00:57:37.850Z,75905.75
2022-10-31T01:00:05.089Z,75895.47
2022-10-31T01:02:32.690Z,75889.31
2022-10-31T01:04:59.888Z,75907.81
2022-10-31T01:07:26.936Z,75909.84
2022-10-31T01:09:54.037Z,75905.75
2022-10-31T01:12:21.169Z,75905.75
2022-10-31T01:14:49.750Z,75909.84
2022-10-31T01:17:17.484Z,75924.25
2022-10-31T01:19:44.614Z,75922.19
2022-10-31T01:22:11.695Z,75916.03
2022-10-31T01:24:39.507Z,75922.19
2022-10-31T01:27:07.183Z,75932.47
2022-10-31T01:29:34.353Z,75928.34
2022-10-31T01:32:01.531Z,75934.53
2022-10-31T01:34:28.827Z,75936.56
2022-10-31T01:36:58.978Z,75934.53
2022-10-31T01:39:26.053Z,75942.75
2022-10-31T01:41:55.472Z,75940.69
2022-10-31T01:44:22.614Z,75930.41
2022-10-31T01:47:00.234Z,75926.28
2022-10-31T01:49:33.983Z,75926.28
2022-10-31T01:52:01.201Z,75916.03
2022-10-31T01:54:29.521Z,75922.19
2022-10-31T01:56:57.078Z,75913.97
2022-10-31T01:59:24.785Z,75909.84
2022-10-31T02:01:52.092Z,75913.97
2022-10-31T02:04:19.598Z,75913.97
2022-10-31T02:06:47.807Z,75913.97
2022-10-31T02:09:14.826Z,75916.03
2022-10-31T02:11:42.275Z,75922.19
2022-10-31T02:14:09.664Z,75936.56
2022-10-31T02:16:36.950Z,75938.63
2022-10-31T02:19:05.713Z,75942.75
2022-10-31T02:21:38.853Z,75940.69
2022-10-31T02:24:08.724Z,75938.63
2022-10-31T02:26:41.790Z,75934.53
2022-10-31T02:29:27.382Z,75946.84
2022-10-31T02:32:01.745Z,75946.84
2022-10-31T02:34:32.248Z,75950.97
2022-10-31T02:37:03.228Z,75953.00
2022-10-31T02:39:36.052Z,75953.00
2022-10-31T02:42:21.995Z,75955.06
2022-10-31T02:44:58.659Z,75963.28
2022-10-31T02:47:27.923Z,75959.19
2022-10-31T02:49:58.484Z,75975.63
2022-10-31T02:52:26.314Z,75967.41
2022-10-31T02:54:54.100Z,75961.25
2022-10-31T02:57:39.824Z,75944.78
2022-10-31T03:00:07.870Z,75942.75
2022-10-31T03:02:35.188Z,75944.78
2022-10-31T03:05:02.396Z,75930.41
2022-10-31T03:07:50.824Z,75938.63
2022-10-31T03:10:21.321Z,75913.97
2022-10-31T03:12:51.962Z,75922.19
2022-10-31T03:15:30.146Z,75922.19
2022-10-31T03:18:02.347Z,75930.41
2022-10-31T03:20:35.807Z,75946.84
2022-10-31T03:23:03.387Z,75938.63
2022-10-31T03:25:30.605Z,75946.84
2022-10-31T03:27:57.980Z,75950.97
2022-10-31T03:30:26.458Z,75934.53
2022-10-31T03:32:54.414Z,75930.41
2022-10-31T03:35:23.823Z,75930.41
2022-10-31T03:37:51.081Z,75930.41
2022-10-31T03:40:19.517Z,75930.41
2022-10-31T03:42:54.653Z,75922.19
2022-10-31T03:45:31.261Z,75913.97
2022-10-31T03:48:01.921Z,75909.84
2022-10-31T03:50:34.133Z,75903.69
2022-10-31T03:53:11.783Z,75909.84
2022-10-31T03:55:43.175Z,75916.03
2022-10-31T03:58:12.152Z,75918.06
2022-10-31T04:00:40.133Z,75916.03
2022-10-31T04:03:08.488Z,75922.19
2022-10-31T04:05:35.674Z,75938.63
2022-10-31T04:08:03.009Z,75944.78
2022-10-31T04:10:33.101Z,75944.78
2022-10-31T04:13:11.533Z,75934.53
2022-10-31T04:15:39.554Z,75934.53
2022-10-31T04:18:06.961Z,75934.53
2022-10-31T04:20:36.442Z,75934.53
2022-10-31T04:23:04.344Z,75926.28
2022-10-31T04:25:31.952Z,75930.41
2022-10-31T04:27:59.341Z,75934.53
2022-10-31T04:30:27.359Z,75934.53
2022-10-31T04:32:54.475Z,75942.75
2022-10-31T04:35:21.797Z,75946.84
2022-10-31T04:37:48.830Z,75930.41
2022-10-31T04:40:16.016Z,75934.53
2022-10-31T04:42:43.049Z,75940.69
2022-10-31T04:45:10.437Z,75932.47
2022-10-31T04:47:37.636Z,75922.19
2022-10-31T04:50:04.885Z,75926.28
2022-10-31T04:52:31.990Z,75922.19
2022-10-31T04:54:59.278Z,75918.06
2022-10-31T04:57:26.425Z,75920.13
2022-10-31T04:59:53.546Z,75905.75
2022-10-31T05:02:20.895Z,75893.41
2022-10-31T05:04:48.036Z,75883.13
2022-10-31T05:07:15.242Z,75893.41
2022-10-31T05:09:42.345Z,75893.41
2022-10-31T05:12:09.743Z,75893.41
2022-10-31T05:14:36.953Z,75891.34
2022-10-31T05:17:03.964Z,75895.47
2022-10-31T05:19:30.998Z,75905.75
2022-10-31T05:21:58.552Z,75905.75
2022-10-31T05:24:27.520Z,75897.53
2022-10-31T05:26:54.750Z,75905.75
2022-10-31T05:29:21.806Z,75913.97
2022-10-31T05:31:49.363Z,75916.03
2022-10-31T05:34:16.428Z,75905.75
2022-10-31T05:36:44.367Z,75909.84
2022-10-31T05:39:11.551Z,75909.84
2022-10-31T05:41:38.757Z,75905.75
2022-10-31T05:44:05.954Z,75911.91
2022-10-31T05:49:05.815Z,75934.53
2022-10-31T05:51:33.049Z,75938.63
2022-10-31T05:54:00.284Z,75926.28
2022-10-31T05:56:27.441Z,75946.84
2022-10-31T05:58:54.539Z,75938.63
2022-10-31T06:01:21.787Z,75938.63
2022-10-31T06:03:48.964Z,75932.47
2022-10-31T06:06:19.889Z,75942.75
2022-10-31T06:08:48.854Z,75950.97
2022-10-31T06:11:15.915Z,75959.19
2022-10-31T06:13:43.684Z,75963.28
2022-10-31T06:16:10.725Z,75946.84
2022-10-31T06:18:37.793Z,75959.19
2022-10-31T06:21:04.932Z,75946.84
2022-10-31T06:23:32.229Z,75948.91
2022-10-31T06:26:00.020Z,75938.63
2022-10-31T06:28:27.121Z,75932.47
2022-10-31T06:30:54.979Z,75926.28
2022-10-31T06:33:22.133Z,75930.41
2022-10-31T06:35:49.174Z,75948.91
2022-10-31T06:38:16.273Z,75959.19
2022-10-31T06:40:43.851Z,75959.19
2022-10-31T06:43:12.344Z,75963.28
2022-10-31T06:45:40.038Z,75942.75
2022-10-31T06:48:22.809Z,75959.19
2022-10-31T06:50:50.006Z,75963.28
2022-10-31T06:53:17.110Z,75961.25
2022-10-31T06:55:44.265Z,75963.28
2022-10-31T06:58:11.528Z,75967.41
2022-10-31T07:00:39.149Z,75963.28
2022-10-31T07:03:07.176Z,75977.69
2022-10-31T07:05:34.250Z,75979.75
2022-10-31T07:08:02.277Z,75971.50
2022-10-31T07:10:34.381Z,75985.91
2022-10-31T07:13:05.317Z,75979.75
2022-10-31T07:15:35.427Z,75967.41
2022-10-31T07:18:06.179Z,75963.28
2022-10-31T07:20:34.585Z,75963.28
2022-10-31T07:23:02.288Z,75967.41
2022-10-31T07:25:30.505Z,75957.13
2022-10-31T07:27:57.942Z,75975.63
2022-10-31T07:30:25.378Z,75998.22
2022-10-31T07:32:52.861Z,75994.13
2022-10-31T07:35:24.723Z,75996.19
2022-10-31T07:37:51.837Z,76010.56
2022-10-31T07:40:19.189Z,76012.63
2022-10-31T07:42:47.643Z,75996.19
2022-10-31T07:45:15.573Z,75969.47
2022-10-31T07:47:52.635Z,75961.25
2022-10-31T07:50:26.974Z,75918.06
2022-10-31T07:53:01.118Z,75883.13
2022-10-31T07:55:28.919Z,75934.53
2022-10-31T07:57:56.711Z,75969.47
2022-10-31T08:00:23.766Z,75905.75
2022-10-31T08:03:04.087Z,75831.75
2022-10-31T08:05:31.537Z,75716.66
2022-10-31T08:07:59.067Z,75581.03
2022-10-31T08:10:27.597Z,75685.84
2022-10-31T08:12:58.178Z,75794.75
2022-10-31T08:15:25.389Z,75858.47
2022-10-31T08:17:52.455Z,75807.09
2022-10-31T08:20:19.772Z,75556.38
2022-10-31T08:22:56.725Z,75285.09
2022-10-31T08:25:26.983Z,75248.13
2022-10-31T08:27:54.367Z,75204.97
2022-10-31T08:30:21.594Z,75190.59
2022-10-31T08:32:58.422Z,75350.88
2022-10-31T08:35:25.663Z,75548.16
2022-10-31T08:37:53.699Z,75659.13
2022-10-31T08:40:21.079Z,75622.13
2022-10-31T08:42:48.337Z,75650.91
2022-10-31T08:45:15.415Z,75813.25
2022-10-31T08:47:42.768Z,75963.28
2022-10-31T08:50:09.898Z,75831.75
2022-10-31T08:52:59.266Z,75541.97
2022-10-31T08:55:24.559Z,75578.97
2022-10-31T08:57:55.492Z,75710.50
2022-10-31T09:00:22.589Z,75815.31
2022-10-31T09:02:55.203Z,75811.22
2022-10-31T09:05:22.801Z,75708.44
2022-10-31T09:07:50.034Z,75786.53
2022-10-31T09:10:17.432Z,75642.69
2022-10-31T09:12:47.827Z,75449.50
2022-10-31T09:15:15.738Z,75400.19
2022-10-31T09:17:46.932Z,75391.97
2022-10-31T09:20:14.909Z,75613.91
2022-10-31T09:22:42.249Z,75457.72
2022-10-31T09:25:09.568Z,75190.59
2022-10-31T09:27:37.035Z,75112.50
2022-10-31T09:30:04.534Z,75200.88
2022-10-31T09:32:31.698Z,75420.72
2022-10-31T09:34:58.876Z,75527.59
2022-10-31T09:37:25.943Z,75322.09
2022-10-31T09:39:53.376Z,75437.19
2022-10-31T09:42:46.857Z,75556.38
2022-10-31T09:45:19.232Z,75320.03
2022-10-31T09:48:05.830Z,75100.19
2022-10-31T09:50:40.144Z,75262.50
2022-10-31T09:53:24.908Z,75465.94
2022-10-31T09:55:53.100Z,75585.13
2022-10-31T09:58:27.244Z,75696.13
2022-10-31T10:00:54.812Z,75679.69
2022-10-31T10:03:25.091Z,75831.75
2022-10-31T10:05:57.800Z,75854.38
2022-10-31T10:08:26.626Z,75646.78
2022-10-31T10:11:03.614Z,75350.88
2022-10-31T10:13:40.513Z,75143.31
2022-10-31T10:16:13.936Z,75223.47
2022-10-31T10:18:56.045Z,75470.06
2022-10-31T10:21:33.154Z,75675.56
2022-10-31T10:24:01.977Z,75766.00
2022-10-31T10:26:36.567Z,75737.22
2022-10-31T10:29:24.067Z,75868.75
2022-10-31T10:31:51.134Z,75846.13
2022-10-31T10:34:25.566Z,75971.50
2022-10-31T10:36:55.696Z,75979.75
2022-10-31T10:39:30.991Z,75885.19
2022-10-31T10:42:17.320Z,75655.00
2022-10-31T10:45:06.870Z,75338.53
2022-10-31T10:47:41.369Z,75231.69
2022-10-31T10:50:11.588Z,75391.97
2022-10-31T10:53:00.455Z,75515.25
2022-10-31T10:55:33.931Z,75761.88
2022-10-31T10:58:05.632Z,75891.34
2022-10-31T11:00:47.473Z,75661.19
2022-10-31T11:03:15.423Z,75572.81
2022-10-31T11:05:46.018Z,75531.72
2022-10-31T11:08:27.692Z,75570.75
2022-10-31T11:11:18.308Z,75535.81
2022-10-31T11:13:46.321Z,75496.78
2022-10-31T11:16:26.706Z,75544.03
2022-10-31T11:18:55.191Z,75611.84
2022-10-31T11:21:23.109Z,75605.69
2022-10-31T11:23:50.155Z,75587.19
2022-10-31T11:26:20.950Z,75574.88
2022-10-31T11:28:57.765Z,75661.19
2022-10-31T11:31:24.911Z,75846.13
2022-10-31T11:33:55.389Z,75934.53
2022-10-31T11:36:23.633Z,76002.34
2022-10-31T11:38:50.685Z,75860.53
2022-10-31T11:41:25.734Z,75798.88
2022-10-31T11:43:56.554Z,75782.44
2022-10-31T11:46:29.618Z,75807.09
2022-10-31T11:48:57.354Z,75770.09
2022-10-31T11:51:25.326Z,75790.66
2022-10-31T11:53:56.824Z,75872.84
2022-10-31T11:56:27.158Z,75827.66
2022-10-31T11:59:02.688Z,75817.38
2022-10-31T12:01:31.379Z,75844.09
2022-10-31T12:04:11.337Z,75872.84
2022-10-31T12:06:40.201Z,75823.53
2022-10-31T12:09:23.041Z,75796.81
2022-10-31T12:12:08.966Z,75887.25
2022-10-31T12:14:51.830Z,75811.22
2022-10-31T12:17:34.114Z,75805.03
2022-10-31T12:20:20.587Z,75784.50
2022-10-31T12:22:58.508Z,75782.44
2022-10-31T12:25:44.421Z,75891.34
2022-10-31T12:28:18.637Z,75893.41
2022-10-31T12:30:52.185Z,76010.56
2022-10-31T12:33:36.380Z,75979.75
2022-10-31T12:36:12.512Z,76033.19
2022-10-31T12:38:51.799Z,76020.84
2022-10-31T12:41:37.669Z,75938.63
2022-10-31T12:44:10.651Z,75946.84
2022-10-31T12:46:41.010Z,75963.28
2022-10-31T12:49:13.856Z,76029.06
2022-10-31T12:51:51.224Z,75938.63
2022-10-31T12:54:24.587Z,76018.78
2022-10-31T12:57:01.408Z,76008.50
2022-10-31T12:59:39.276Z,76115.38
2022-10-31T13:02:15.767Z,76119.50
2022-10-31T13:04:56.566Z,76133.88
2022-10-31T13:07:28.662Z,76135.94
2022-10-31T13:10:01.830Z,76197.59
2022-10-31T13:12:30.949Z,76259.28
2022-10-31T13:15:17.540Z,76277.78
2022-10-31T13:17:45.671Z,76257.22
2022-10-31T13:20:39.382Z,76316.81
2022-10-31T13:23:23.842Z,76329.16
2022-10-31T13:25:59.867Z,76316.81
2022-10-31T13:28:27.521Z,76360.00
2022-10-31T13:30:55.119Z,76357.94
2022-10-31T13:33:30.396Z,76333.28
2022-10-31T13:36:00.555Z,76337.38
2022-10-31T13:38:45.671Z,76304.50
2022-10-31T13:41:25.169Z,76333.28
2022-10-31T13:43:52.220Z,76380.53
2022-10-31T13:46:34.612Z,76382.59
2022-10-31T13:49:01.815Z,76374.38
2022-10-31T13:51:30.356Z,76407.28
2022-10-31T13:54:16.274Z,76448.38
2022-10-31T13:56:43.494Z,76456.59
2022-10-31T13:59:10.548Z,76475.09
2022-10-31T14:01:37.929Z,76475.09
2022-10-31T14:04:20.767Z,76497.72
2022-10-31T14:06:53.395Z,76526.50
2022-10-31T14:09:21.772Z,76505.94
2022-10-31T14:11:49.177Z,76522.38
2022-10-31T14:14:16.207Z,76518.28
2022-10-31T14:16:43.997Z,76518.28
2022-10-31T14:19:18.086Z,76547.06
2022-10-31T14:21:46.015Z,76571.72
2022-10-31T14:24:30.390Z,76538.81
2022-10-31T14:26:58.251Z,76579.94
2022-10-31T14:29:29.200Z,76584.06
2022-10-31T14:31:57.166Z,76575.81
2022-10-31T14:34:28.499Z,76569.66
2022-10-31T14:37:10.821Z,76608.72
2022-10-31T14:40:07.255Z,76614.88
2022-10-31T14:42:49.633Z,76641.59
2022-10-31T14:45:22.532Z,76656.00
2022-10-31T14:48:08.318Z,76643.66
2022-10-31T14:50:41.589Z,76660.13
2022-10-31T14:53:09.631Z,76645.72
2022-10-31T14:55:41.020Z,76682.72
2022-10-31T14:58:08.184Z,76666.28
2022-10-31T15:00:35.215Z,76660.13
2022-10-31T15:03:05.651Z,76678.63
2022-10-31T15:05:33.234Z,76678.63
2022-10-31T15:08:01.418Z,76725.91
2022-10-31T15:10:30.866Z,76736.16
2022-10-31T15:12:58.186Z,76719.72
2022-10-31T15:15:26.943Z,76719.72
2022-10-31T15:17:55.040Z,76711.50
2022-10-31T15:20:25.720Z,76727.94
2022-10-31T15:22:52.804Z,76750.56
2022-10-31T15:25:21.414Z,76756.72
2022-10-31T15:27:48.851Z,76756.72
2022-10-31T15:30:20.270Z,76777.28
2022-10-31T15:32:57.479Z,76773.19
2022-10-31T15:35:26.778Z,76787.56
2022-10-31T15:37:53.894Z,76785.50
2022-10-31T15:40:22.589Z,76769.06
2022-10-31T15:43:00.737Z,76785.50
2022-10-31T15:45:28.488Z,76795.78
2022-10-31T15:47:57.252Z,76820.47
2022-10-31T15:50:38.563Z,76830.75
2022-10-31T15:53:06.950Z,76843.06
2022-10-31T15:55:37.245Z,76875.97
2022-10-31T15:58:05.810Z,76871.84
2022-10-31T16:00:34.717Z,76869.81
2022-10-31T16:03:23.103Z,76875.97
2022-10-31T16:05:50.912Z,76867.75
2022-10-31T16:08:32.380Z,76855.41
2022-10-31T16:11:00.433Z,76867.75
2022-10-31T16:13:28.834Z,76919.16
2022-10-31T16:16:28.847Z,76921.19
2022-10-31T16:18:53.701Z,76929.41
2022-10-31T16:21:24.555Z,76898.59
2022-10-31T16:23:55.422Z,76915.03
2022-10-31T16:26:25.091Z,76892.41
2022-10-31T16:29:02.709Z,76921.19
2022-10-31T16:31:32.019Z,76908.88
2022-10-31T16:34:03.070Z,76912.97
2022-10-31T16:36:36.339Z,76929.41
2022-10-31T16:39:04.059Z,76921.19
2022-10-31T16:41:31.178Z,76939.69
2022-10-31T16:43:58.260Z,76958.19
2022-10-31T16:46:26.751Z,76978.75
2022-10-31T16:48:53.907Z,76962.31
2022-10-31T16:51:28.715Z,76960.25
2022-10-31T16:53:55.890Z,76974.66
2022-10-31T16:56:25.224Z,76974.66
2022-10-31T16:58:52.338Z,76982.88
2022-10-31T17:01:19.505Z,76980.81
2022-10-31T17:03:46.622Z,76987.00
2022-10-31T17:06:14.226Z,76968.47
2022-10-31T17:08:44.180Z,76982.88
2022-10-31T17:11:16.060Z,76997.25
2022-10-31T17:13:45.335Z,76995.22
2022-10-31T17:16:12.765Z,77001.38
2022-10-31T17:18:39.818Z,77007.53
2022-10-31T17:21:06.953Z,77009.59
2022-10-31T17:23:38.237Z,77034.28
2022-10-31T17:26:06.583Z,77052.78
2022-10-31T17:28:33.640Z,77032.22
2022-10-31T17:31:01.797Z,77058.94
2022-10-31T17:33:28.925Z,77040.44
2022-10-31T17:35:56.152Z,77052.78
2022-10-31T17:38:23.206Z,77061.00
2022-10-31T17:40:50.261Z,77028.09
2022-10-31T17:43:17.998Z,77036.34
2022-10-31T17:45:45.176Z,77048.66
2022-10-31T17:48:12.972Z,77048.66
2022-10-31T17:50:41.170Z,77073.34
2022-10-31T17:53:08.271Z,77069.22
2022-10-31T17:55:37.678Z,77085.66
2022-10-31T17:58:05.216Z,77075.38
2022-10-31T18:00:32.873Z,77069.22
2022-10-31T18:03:01.880Z,77069.22
2022-10-31T18:05:29.438Z,77075.38
2022-10-31T18:07:59.596Z,77093.91
2022-10-31T18:10:30.961Z,77091.84
2022-10-31T18:12:58.103Z,77104.19
2022-10-31T18:15:25.343Z,77126.78
2022-10-31T18:17:52.478Z,77112.41
2022-10-31T18:20:19.547Z,77110.34
2022-10-31T18:22:48.677Z,77110.34
2022-10-31T18:25:15.821Z,77163.81
2022-10-31T18:27:43.034Z,77137.06
2022-10-31T18:30:10.426Z,77130.91
2022-10-31T18:32:37.552Z,77139.13
2022-10-31T18:35:04.694Z,77157.63
2022-10-31T18:37:31.784Z,77151.47
2022-10-31T18:39:58.937Z,77192.59
2022-10-31T18:42:26.171Z,77188.47
2022-10-31T18:44:53.287Z,77188.47
2022-10-31T18:47:20.485Z,77200.81
2022-10-31T18:49:48.072Z,77204.91
2022-10-31T18:52:15.163Z,77188.47
2022-10-31T18:54:42.212Z,77206.97
2022-10-31T18:57:09.314Z,77190.53
2022-10-31T18:59:36.628Z,77196.69
2022-10-31T19:02:03.750Z,77209.03
2022-10-31T19:04:30.980Z,77209.03
2022-10-31T19:06:58.050Z,77233.69
2022-10-31T19:09:25.763Z,77213.16
2022-10-31T19:11:52.834Z,77250.16
2022-10-31T19:14:21.579Z,77244.00
2022-10-31T19:16:51.913Z,77246.03
2022-10-31T19:19:22.806Z,77246.03
2022-10-31T19:21:49.821Z,77262.50
2022-10-31T19:24:20.047Z,77262.50
2022-10-31T19:26:48.270Z,77241.94
2022-10-31T19:29:15.428Z,77227.53
2022-10-31T19:31:42.765Z,77239.88
2022-10-31T19:34:10.319Z,77258.38
2022-10-31T19:36:37.533Z,77250.16
2022-10-31T19:39:04.582Z,77262.50
2022-10-31T19:41:33.765Z,77295.38
2022-10-31T19:44:01.133Z,77287.16
2022-10-31T19:46:48.207Z,77283.06
2022-10-31T19:49:15.366Z,77297.44
2022-10-31T19:51:42.600Z,77307.72
2022-10-31T19:54:10.550Z,77307.72
2022-10-31T19:56:37.692Z,77311.84
2022-10-31T19:59:05.158Z,77315.94
2022-10-31T20:01:32.600Z,77320.06
2022-10-31T20:03:59.721Z,77315.94
2022-10-31T20:06:29.939Z,77324.16
2022-10-31T20:08:57.319Z,77342.69
2022-10-31T20:11:27.876Z,77352.97
2022-10-31T20:13:58.507Z,77336.50
2022-10-31T20:16:25.973Z,77344.72
2022-10-31T20:19:12.957Z,77350.91
2022-10-31T20:21:40.327Z,77369.41
2022-10-31T20:24:08.439Z,77350.91
2022-10-31T20:26:35.578Z,77361.19
2022-10-31T20:29:03.273Z,77373.53
2022-10-31T20:31:32.170Z,77365.28
2022-10-31T20:33:59.224Z,77369.41
2022-10-31T20:36:28.702Z,77369.41
2022-10-31T20:38:57.295Z,77367.34
2022-10-31T20:41:24.447Z,77375.56
2022-10-31T20:43:51.966Z,77385.84
2022-10-31T20:46:20.646Z,77389.97
2022-10-31T20:48:48.643Z,77396.13
2022-10-31T20:51:21.034Z,77400.25
2022-10-31T20:53:49.830Z,77398.19
2022-10-31T20:56:17.703Z,77383.81
2022-10-31T20:58:45.031Z,77385.84
2022-10-31T21:01:17.062Z,77396.13
2022-10-31T21:03:44.355Z,77410.53
2022-10-31T21:06:11.878Z,77424.94
2022-10-31T21:08:39.187Z,77426.97
2022-10-31T21:11:19.052Z,77429.03
2022-10-31T21:13:47.064Z,77447.53
2022-10-31T21:16:31.121Z,77445.50
2022-10-31T21:18:59.441Z,77455.75
2022-10-31T21:21:32.188Z,77472.22
2022-10-31T21:24:05.207Z,77472.22
2022-10-31T21:26:33.707Z,77455.75
2022-10-31T21:29:00.969Z,77464.00
2022-10-31T21:31:28.648Z,77464.00
2022-10-31T21:33:56.001Z,77472.22
2022-10-31T21:36:23.151Z,77476.31
2022-10-31T21:38:51.340Z,77476.31
2022-10-31T21:41:18.840Z,77470.16
2022-10-31T21:43:46.255Z,77464.00
2022-10-31T21:46:14.154Z,77455.75
2022-10-31T21:48:42.240Z,77476.31
2022-10-31T21:51:16.319Z,77464.00
2022-10-31T21:54:04.027Z,77488.66
2022-10-31T21:56:31.292Z,77492.78
2022-10-31T21:58:59.219Z,77505.13
2022-10-31T22:01:26.705Z,77515.41
2022-10-31T22:03:54.351Z,77517.44
2022-10-31T22:06:21.492Z,77517.44
2022-10-31T22:08:48.537Z,77525.69
2022-10-31T22:11:16.558Z,77513.34
2022-10-31T22:13:45.211Z,77529.78
2022-10-31T22:16:13.058Z,77525.69
2022-10-31T22:18:42.237Z,77523.63
2022-10-31T22:21:15.796Z,77533.91
2022-10-31T22:23:42.995Z,77538.03
2022-10-31T22:26:14.327Z,77544.19
2022-10-31T22:28:42.068Z,77554.47
2022-10-31T22:31:09.526Z,77554.47
2022-10-31T22:33:36.844Z,77552.41
2022-10-31T22:36:04.283Z,77558.56
2022-10-31T22:38:31.883Z,77566.81
2022-10-31T22:40:59.121Z,77558.56
2022-10-31T22:43:26.527Z,77546.25
2022-10-31T22:46:00.402Z,77533.91
2022-10-31T22:48:27.578Z,77531.84
2022-10-31T22:50:54.760Z,77525.69
2022-10-31T22:53:21.939Z,77513.34
2022-10-31T22:55:51.140Z,77529.78
2022-10-31T22:58:18.723Z,77533.91
2022-10-31T23:00:45.798Z,77517.44
2022-10-31T23:03:13.039Z,77540.06
2022-10-31T23:05:41.696Z,77529.78
2022-10-31T23:08:08.874Z,77542.13
2022-10-31T23:10:41.262Z,77542.13
2022-10-31T23:13:27.328Z,77538.03
2022-10-31T23:15:54.552Z,77554.47
2022-10-31T23:18:47.956Z,77554.47
2022-10-31T23:21:09.128Z,77542.13
2022-10-31T23:23:36.463Z,77548.28
2022-10-31T23:26:22.564Z,77538.03
2022-10-31T23:28:49.668Z,77546.25
2022-10-31T23:31:16.739Z,77533.91
2022-10-31T23:33:43.908Z,77542.13
2022-10-31T23:36:11.047Z,77538.03
2022-10-31T23:38:38.392Z,77540.06
2022-10-31T23:41:05.428Z,77550.34
2022-10-31T23:43:32.578Z,77546.25
2022-10-31T23:46:01.428Z,77550.34
2022-10-31T23:48:28.536Z,77546.25
2022-10-31T23:50:55.692Z,77542.13
2022-10-31T23:53:22.804Z,77529.78
2022-10-31T23:55:50.017Z,77533.91
2022-10-31T23:58:17.673Z,77550.34
